Time;durP1;ratioP1;P1;durP2;ratioP2;P2;SDS_P1;SDS_P2;PMS_P1;PMS_P2;Temp;Humidity;BMP_temperature;BMP_pressure;BME280_temperature;BME280_humidity;BME280_pressure;Samples;Min_cycle;Max_cycle;Signal;HPM_P1;HPM_P2
2021/12/24 00:01:55;;;;;;;4.75;2.08;;;20.00;56.20;;;;;;4493440;32;20120;-79
2021/12/24 00:04:22;;;;;;;4.70;2.28;;;19.90;56.20;;;;;;4494246;32;20239;-79
2021/12/24 00:06:49;;;;;;;5.38;2.15;;;19.90;56.30;;;;;;4493856;32;20134;-78
2021/12/24 00:09:27;;;;;;;3.90;2.15;;;19.90;56.30;;;;;;4494608;32;20201;-79
2021/12/24 00:11:57;;;;;;;3.42;2.05;;;19.90;56.30;;;;;;4493618;32;20641;-79
2021/12/24 00:14:25;;;;;;;3.38;1.85;;;19.90;56.40;;;;;;4494941;31;20142;-78
2021/12/24 00:16:55;;;;;;;5.20;1.90;;;19.80;56.40;;;;;;4493564;32;20120;-79
2021/12/24 00:19:36;;;;;;;3.10;2.10;;;19.80;56.40;;;;;;4495812;31;20154;-79
2021/12/24 00:35:59;;;;;;;3.70;1.75;;;19.70;56.60;;;;;;4497201;31;20467;-78
2021/12/24 00:38:28;;;;;;;3.50;1.80;;;19.70;56.60;;;;;;4496812;31;20137;-78
2021/12/24 00:40:55;;;;;;;3.30;1.75;;;19.60;56.50;;;;;;4495495;31;20129;-79
2021/12/24 00:43:24;;;;;;;2.95;1.52;;;19.60;56.50;;;;;;4497058;31;20137;-79
2021/12/24 00:45:50;;;;;;;3.25;1.90;;;19.60;56.50;;;;;;4496220;31;20282;-79
2021/12/24 00:48:18;;;;;;;2.97;1.73;;;19.60;56.50;;;;;;4497300;31;20117;-79
2021/12/24 00:56:04;;;;;;;3.15;1.60;;;19.60;56.60;;;;;;4496462;31;20140;-79
2021/12/24 00:58:32;;;;;;;2.13;1.33;;;19.60;56.60;;;;;;4496555;31;20518;-79
2021/12/24 01:00:58;;;;;;;2.72;1.58;;;19.50;56.60;;;;;;4496902;31;20140;-78
2021/12/24 01:03:25;;;;;;;3.38;1.60;;;19.60;56.70;;;;;;4496019;31;20826;-79
2021/12/24 01:05:51;;;;;;;2.05;1.45;;;19.50;56.70;;;;;;4496802;31;20883;-79
2021/12/24 01:08:17;;;;;;;2.35;1.38;;;19.50;56.70;;;;;;4495396;31;20129;-79
2021/12/24 01:10:58;;;;;;;2.42;1.50;;;19.50;56.80;;;;;;4495256;31;20139;-78
2021/12/24 01:13:26;;;;;;;4.82;1.52;;;19.50;56.80;;;;;;4496674;31;20663;-78
2021/12/24 01:16:02;;;;;;;2.10;1.40;;;19.50;56.80;;;;;;4494688;31;20159;-78
2021/12/24 01:21:12;;;;;;;3.47;1.58;;;19.50;56.90;;;;;;4495793;31;20309;-78
2021/12/24 01:23:48;;;;;;;3.00;1.35;;;19.50;56.90;;;;;;4496530;31;20147;-78
2021/12/24 01:26:36;;;;;;;2.28;1.33;;;19.50;56.90;;;;;;4496673;31;20133;-78
2021/12/24 01:40:07;;;;;;;2.35;1.20;;;19.40;57.00;;;;;;4496511;31;20138;-78
2021/12/24 01:42:42;;;;;;;2.03;1.27;;;19.30;57.00;;;;;;4496006;31;20137;-78
2021/12/24 01:45:23;;;;;;;1.90;1.30;;;19.40;57.00;;;;;;4495862;31;20128;-78
2021/12/24 01:47:52;;;;;;;2.25;1.20;;;19.30;57.00;;;;;;4496250;31;20128;-78
2021/12/24 01:50:20;;;;;;;1.83;0.90;;;19.30;57.10;;;;;;4495515;31;20139;-79
2021/12/24 01:52:49;;;;;;;2.35;1.13;;;19.30;57.10;;;;;;4496636;31;20149;-78
2021/12/24 01:55:17;;;;;;;3.47;1.40;;;19.30;57.10;;;;;;4494387;31;20191;-78
2021/12/24 01:57:43;;;;;;;1.83;1.20;;;19.20;57.10;;;;;;4496050;31;20608;-78
2021/12/24 02:00:38;;;;;;;1.77;1.00;;;19.20;57.10;;;;;;4495544;31;20879;-78
2021/12/24 02:03:08;;;;;;;1.65;1.17;;;19.30;57.20;;;;;;4494091;31;20151;-78
2021/12/24 02:05:35;;;;;;;1.92;1.17;;;19.20;57.20;;;;;;4495116;31;20269;-79
2021/12/24 02:08:02;;;;;;;1.73;1.02;;;19.20;57.20;;;;;;4493924;31;20121;-79
2021/12/24 02:10:29;;;;;;;3.05;1.17;;;19.20;57.20;;;;;;4495660;31;20147;-78
2021/12/24 02:12:55;;;;;;;3.15;1.17;;;19.20;57.20;;;;;;4495146;31;20120;-80
2021/12/24 02:29:16;;;;;;;2.22;1.15;;;19.10;57.30;;;;;;4494813;31;20570;-77
2021/12/24 02:31:43;;;;;;;1.77;1.02;;;19.10;57.30;;;;;;4495615;31;20131;-78
2021/12/24 02:34:09;;;;;;;1.05;0.73;;;19.10;57.30;;;;;;4494662;31;20124;-78
2021/12/24 02:36:35;;;;;;;1.48;0.88;;;19.10;57.30;;;;;;4495230;31;20120;-79
2021/12/24 02:39:02;;;;;;;3.05;1.30;;;19.10;57.30;;;;;;4494762;31;20190;-78
2021/12/24 02:41:28;;;;;;;1.20;0.85;;;19.10;57.30;;;;;;4493558;31;20190;-78
2021/12/24 02:43:54;;;;;;;1.58;0.88;;;19.10;57.30;;;;;;4481423;31;20136;-78
2021/12/24 02:46:36;;;;;;;1.85;1.00;;;19.10;57.30;;;;;;4494584;31;20151;-78
2021/12/24 02:53:56;;;;;;;1.98;1.00;;;19.00;57.30;;;;;;4495128;31;20237;-78
2021/12/24 02:54:36;;;;;;;2.13;0.80;;;19.00;57.30;;;;;;4494567;31;20186;-79
2021/12/24 02:57:09;;;;;;;1.38;0.90;;;19.00;57.30;;;;;;4494344;31;20152;-79
2021/12/24 02:59:46;;;;;;;1.90;0.90;;;19.00;57.40;;;;;;4493589;31;20155;-79
2021/12/24 03:02:13;;;;;;;2.30;0.75;;;19.00;57.30;;;;;;4498511;31;20108;-78
2021/12/24 03:04:39;;;;;;;1.65;0.90;;;19.00;57.40;;;;;;4494201;31;20128;-77
2021/12/24 03:07:04;;;;;;;3.55;0.80;;;19.00;57.40;;;;;;4493420;31;20147;-78
2021/12/24 03:09:30;;;;;;;1.10;0.80;;;19.00;57.40;;;;;;4494121;31;20133;-78
2021/12/24 03:11:58;;;;;;;1.40;0.80;;;19.00;57.40;;;;;;4493320;31;20124;-79
2021/12/24 03:14:24;;;;;;;1.77;0.90;;;18.90;57.40;;;;;;4495200;31;20689;-78
2021/12/24 03:16:57;;;;;;;0.85;0.70;;;19.00;57.40;;;;;;4494489;31;20117;-77
2021/12/24 03:19:27;;;;;;;1.27;0.80;;;19.00;57.40;;;;;;4493431;31;20128;-78
2021/12/24 03:21:59;;;;;;;2.17;0.93;;;19.00;57.40;;;;;;4494798;31;20588;-77
2021/12/24 03:26:52;;;;;;;0.60;0.60;;;18.90;57.30;;;;;;4494202;32;20129;-78
2021/12/24 03:29:19;;;;;;;0.68;0.60;;;18.90;57.40;;;;;;4494039;32;20145;-78
2021/12/24 03:31:46;;;;;;;1.05;0.60;;;18.90;57.40;;;;;;4495058;32;20604;-78
2021/12/24 03:34:15;;;;;;;1.13;0.70;;;18.90;57.40;;;;;;4494139;32;20610;-78
2021/12/24 03:36:41;;;;;;;1.02;0.73;;;18.90;57.40;;;;;;4494441;32;20570;-77
2021/12/24 03:39:08;;;;;;;0.85;0.77;;;18.90;57.40;;;;;;4493519;32;20178;-77
2021/12/24 03:41:35;;;;;;;0.95;0.60;;;18.90;57.50;;;;;;4494254;32;20145;-77
2021/12/24 03:44:01;;;;;;;0.85;0.50;;;18.90;57.50;;;;;;4495091;32;20120;-77
2021/12/24 03:46:38;;;;;;;1.23;0.60;;;18.90;57.40;;;;;;4493905;32;20175;-78
2021/12/24 03:49:14;;;;;;;1.10;0.63;;;18.80;57.30;;;;;;4493767;32;20514;-77
2021/12/24 03:56:53;;;;;;;1.08;0.73;;;18.90;57.50;;;;;;4498269;31;20121;-78
2021/12/24 03:59:19;;;;;;;0.85;0.50;;;18.80;57.30;;;;;;4497068;31;20128;-78
2021/12/24 04:01:45;;;;;;;0.70;0.70;;;18.80;57.40;;;;;;4498092;31;20723;-78
2021/12/24 04:04:12;;;;;;;1.00;0.70;;;18.80;57.50;;;;;;4495978;31;20113;-78
2021/12/24 04:06:38;;;;;;;0.70;0.60;;;18.80;57.40;;;;;;4497398;31;20144;-77
2021/12/24 04:09:06;;;;;;;0.95;0.60;;;18.80;57.50;;;;;;4497682;31;20137;-78
2021/12/24 04:11:33;;;;;;;0.68;0.52;;;18.80;58.30;;;;;;4496978;31;20129;-77
2021/12/24 04:14:02;;;;;;;1.35;0.73;;;18.80;57.50;;;;;;4497892;31;20133;-78
2021/12/24 04:16:28;;;;;;;0.93;0.60;;;18.80;57.50;;;;;;4496667;31;20137;-78
2021/12/24 04:19:25;;;;;;;0.70;0.60;;;18.80;57.50;;;;;;4497723;31;20194;-78
2021/12/24 04:27:13;;;;;;;1.00;0.70;;;18.70;57.50;;;;;;4497292;31;20136;-78
2021/12/24 04:29:39;;;;;;;0.95;0.70;;;18.70;57.50;;;;;;4496649;31;20121;-78
2021/12/24 04:32:52;;;;;;;0.88;0.77;;;18.70;57.50;;;;;;4497153;31;20133;-78
2021/12/24 04:35:14;;;;;;;0.70;0.50;;;18.70;57.50;;;;;;4495579;31;20129;-78
2021/12/24 05:04:35;;;;;;;0.77;0.60;;;18.60;57.50;;;;;;4495251;31;20163;-78
2021/12/24 05:07:14;;;;;;;0.60;0.50;;;18.60;57.50;;;;;;4496155;31;20144;-77
2021/12/24 05:09:41;;;;;;;1.35;1.00;;;18.60;57.50;;;;;;4497400;31;20147;-78
2021/12/24 05:12:08;;;;;;;0.90;0.60;;;18.60;57.50;;;;;;4494939;31;20141;-78
2021/12/24 05:14:34;;;;;;;0.70;0.50;;;18.60;57.50;;;;;;4496551;31;20233;-77
2021/12/24 05:17:49;;;;;;;0.55;0.52;;;18.60;57.50;;;;;;4496386;31;20548;-77
2021/12/24 05:22:36;;;;;;;1.08;0.68;;;18.60;57.40;;;;;;4496790;31;20141;-78
2021/12/24 05:25:02;;;;;;;0.85;0.60;;;18.60;57.50;;;;;;4495914;31;20120;-78
2021/12/24 05:27:28;;;;;;;0.90;0.60;;;18.60;57.50;;;;;;4496566;31;20225;-77
2021/12/24 05:29:55;;;;;;;0.98;0.70;;;18.60;57.40;;;;;;4495832;31;20263;-78
2021/12/24 05:32:22;;;;;;;0.50;0.45;;;18.60;57.40;;;;;;4496113;31;20136;-78
2021/12/24 05:34:48;;;;;;;0.60;0.60;;;18.50;57.40;;;;;;4496542;31;20132;-78
2021/12/24 05:37:13;;;;;;;2.10;0.85;;;18.60;57.50;;;;;;4495615;31;20109;-78
2021/12/24 05:39:39;;;;;;;1.33;0.70;;;18.60;57.50;;;;;;4482052;31;20155;-77
2021/12/24 05:42:06;;;;;;;0.90;0.70;;;18.50;57.40;;;;;;4495734;31;20128;-78
2021/12/24 05:44:33;;;;;;;0.77;0.68;;;18.50;57.40;;;;;;4496241;31;20194;-77
2021/12/24 05:47:00;;;;;;;1.13;0.70;;;18.60;57.40;;;;;;4494599;31;20145;-77
2021/12/24 05:49:26;;;;;;;1.08;0.68;;;18.50;57.40;;;;;;4495423;31;20124;-77
2021/12/24 05:51:52;;;;;;;1.58;0.73;;;18.50;57.40;;;;;;4494996;31;20132;-77
2021/12/24 05:54:17;;;;;;;0.90;0.68;;;18.50;57.30;;;;;;4495411;31;20120;-78
2021/12/24 05:56:44;;;;;;;0.77;0.65;;;18.50;57.40;;;;;;4495146;31;20120;-77
2021/12/24 05:59:10;;;;;;;0.90;0.77;;;18.50;57.40;;;;;;4495388;31;20186;-77
2021/12/24 06:01:37;;;;;;;1.27;0.80;;;18.50;57.40;;;;;;4496133;31;20258;-78
2021/12/24 06:04:03;;;;;;;0.90;0.77;;;18.50;57.40;;;;;;4495392;31;20188;-78
2021/12/24 06:06:39;;;;;;;1.15;0.70;;;18.50;57.40;;;;;;4495211;31;20120;-78
2021/12/24 06:09:06;;;;;;;1.40;0.90;;;18.50;57.40;;;;;;4495959;31;20238;-78
2021/12/24 06:11:32;;;;;;;0.70;0.50;;;18.50;57.40;;;;;;4494022;31;20258;-77
2021/12/24 06:13:58;;;;;;;0.90;0.70;;;18.50;57.40;;;;;;4496440;31;20124;-77
2021/12/24 06:16:24;;;;;;;1.27;0.93;;;18.40;57.50;;;;;;4493710;31;20125;-77
2021/12/24 06:18:50;;;;;;;1.30;0.80;;;18.40;57.50;;;;;;4496110;31;20128;-78
2021/12/24 06:21:16;;;;;;;1.52;0.85;;;18.40;57.50;;;;;;4495026;31;20174;-77
2021/12/24 06:23:43;;;;;;;1.10;0.80;;;18.40;57.50;;;;;;4494847;31;20593;-77
2021/12/24 06:26:10;;;;;;;1.55;0.80;;;18.40;57.40;;;;;;4495624;31;20138;-77
2021/12/24 06:28:37;;;;;;;1.10;0.90;;;18.40;57.40;;;;;;4494561;31;20241;-77
2021/12/24 06:31:06;;;;;;;1.05;0.77;;;18.40;57.40;;;;;;4494820;31;20131;-77
2021/12/24 06:33:32;;;;;;;1.42;0.60;;;18.40;57.50;;;;;;4493828;31;20545;-77
2021/12/24 06:35:59;;;;;;;1.00;0.65;;;18.40;57.40;;;;;;4494414;31;20152;-77
2021/12/24 06:38:25;;;;;;;0.90;0.60;;;18.40;57.50;;;;;;4494782;31;20153;-77
2021/12/24 06:40:53;;;;;;;1.10;0.60;;;18.40;57.50;;;;;;4494834;31;20172;-77
2021/12/24 06:43:18;;;;;;;1.42;0.70;;;18.40;57.50;;;;;;4495534;31;20564;-77
2021/12/24 06:45:47;;;;;;;0.95;0.68;;;18.40;57.60;;;;;;4494354;31;20345;-77
2021/12/24 06:48:13;;;;;;;0.80;0.70;;;18.40;57.60;;;;;;4495626;31;20194;-77
2021/12/24 06:50:39;;;;;;;1.95;0.75;;;18.40;57.60;;;;;;4494310;31;20266;-77
2021/12/24 06:53:04;;;;;;;1.10;0.70;;;18.40;57.60;;;;;;4495456;31;20483;-77
2021/12/24 06:55:31;;;;;;;0.95;0.70;;;18.30;57.50;;;;;;4506914;31;20210;-78
2021/12/24 06:57:57;;;;;;;0.80;0.63;;;18.40;57.60;;;;;;4495008;31;20148;-78
2021/12/24 07:00:24;;;;;;;1.58;0.70;;;18.30;57.60;;;;;;4495098;31;20241;-78
2021/12/24 07:02:50;;;;;;;0.73;0.50;;;18.30;57.50;;;;;;4506787;31;20137;-78
2021/12/24 07:05:17;;;;;;;0.50;0.50;;;18.30;57.50;;;;;;4495320;31;20186;-77
2021/12/24 07:07:44;;;;;;;1.27;0.70;;;18.30;57.50;;;;;;4494109;31;20133;-77
2021/12/24 07:10:11;;;;;;;0.70;0.50;;;18.30;57.50;;;;;;4495223;31;20127;-78
2021/12/24 07:12:37;;;;;;;1.17;0.70;;;18.30;57.60;;;;;;4494236;31;20197;-77
2021/12/24 07:15:03;;;;;;;0.88;0.68;;;18.30;58.50;;;;;;4495005;31;20128;-77
2021/12/24 07:17:29;;;;;;;0.70;0.70;;;18.30;57.70;;;;;;4495088;31;20262;-77
2021/12/24 07:19:55;;;;;;;0.70;0.60;;;18.30;57.70;;;;;;4506229;31;20666;-77
2021/12/24 07:22:21;;;;;;;0.90;0.60;;;18.30;57.70;;;;;;4495131;31;20632;-77
2021/12/24 07:24:47;;;;;;;1.15;0.63;;;18.30;57.70;;;;;;4493237;32;20113;-78
2021/12/24 07:27:13;;;;;;;0.77;0.60;;;18.30;57.70;;;;;;4495066;31;20132;-77
2021/12/24 07:29:39;;;;;;;0.90;0.55;;;18.30;57.70;;;;;;4496282;31;20136;-77
2021/12/24 07:32:06;;;;;;;1.13;0.70;;;18.30;57.70;;;;;;4510164;31;20143;-76
2021/12/24 07:34:32;;;;;;;1.20;0.60;;;18.30;57.70;;;;;;4496874;31;20259;-77
2021/12/24 07:36:58;;;;;;;1.02;0.70;;;18.30;57.80;;;;;;4497509;31;20152;-77
2021/12/24 07:39:26;;;;;;;0.60;0.50;;;18.30;57.70;;;;;;4510395;31;20164;-77
2021/12/24 07:41:52;;;;;;;0.55;0.40;;;18.30;57.80;;;;;;4497181;31;20136;-78
2021/12/24 07:44:18;;;;;;;0.60;0.50;;;18.20;57.70;;;;;;4497312;31;20121;-77
2021/12/24 07:46:50;;;;;;;0.63;0.50;;;18.20;57.70;;;;;;4496248;31;20271;-77
2021/12/24 07:51:59;;;;;;;0.60;0.60;;;18.20;57.70;;;;;;4497639;31;20286;-77
2021/12/24 07:54:25;;;;;;;1.10;0.70;;;18.20;57.80;;;;;;4497412;31;20190;-77
2021/12/24 07:56:51;;;;;;;0.60;0.47;;;18.20;57.70;;;;;;4498047;31;20133;-77
2021/12/24 07:59:17;;;;;;;1.38;0.50;;;18.20;57.70;;;;;;4497086;31;20730;-71
2021/12/24 08:01:45;;;;;;;3.28;0.68;;;18.20;57.80;;;;;;4496451;31;20136;-71
2021/12/24 08:04:11;;;;;;;2.30;0.60;;;18.20;57.90;;;;;;4496150;31;20181;-71
2021/12/24 08:06:38;;;;;;;1.15;0.50;;;18.10;57.40;;;;;;4496016;31;20196;-70
2021/12/24 08:09:08;;;;;;;0.70;0.60;;;18.10;56.80;;;;;;4509327;31;20132;-73
2021/12/24 08:11:35;;;;;;;1.48;0.70;;;18.10;57.00;;;;;;4513086;31;20134;-73
2021/12/24 08:14:02;;;;;;;1.23;0.85;;;18.10;57.50;;;;;;4513689;31;20164;-73
2021/12/24 08:16:29;;;;;;;0.68;0.50;;;18.10;57.70;;;;;;4511733;31;20139;-73
2021/12/24 08:18:56;;;;;;;2.15;0.50;;;18.00;57.80;;;;;;4513201;31;20171;-75
2021/12/24 08:21:22;;;;;;;1.92;0.57;;;18.00;57.80;;;;;;4513137;31;20141;-73
2021/12/24 08:23:48;;;;;;;3.70;0.88;;;18.00;57.80;;;;;;4512654;31;20120;-72
2021/12/24 08:26:15;;;;;;;1.05;0.50;;;18.00;57.80;;;;;;4508448;31;20125;-74
2021/12/24 08:28:41;;;;;;;1.33;0.60;;;18.00;57.90;;;;;;4496381;31;20124;-74
2021/12/24 08:31:08;;;;;;;3.65;0.80;;;18.10;57.90;;;;;;4497057;31;20129;-72
2021/12/24 08:33:34;;;;;;;0.80;0.50;;;18.10;57.90;;;;;;4496509;31;20141;-72
2021/12/24 08:36:06;;;;;;;1.10;0.57;;;18.10;58.00;;;;;;4495978;31;20117;-75
2021/12/24 08:38:32;;;;;;;1.60;0.40;;;18.10;57.80;;;;;;4497162;31;20137;-74
2021/12/24 08:40:58;;;;;;;1.48;0.50;;;18.10;57.80;;;;;;4495041;31;20182;-75
2021/12/24 08:43:24;;;;;;;0.93;0.60;;;18.20;57.80;;;;;;4483093;31;20238;-74
2021/12/24 08:45:50;;;;;;;0.82;0.45;;;18.30;57.60;;;;;;4496314;31;20127;-73
2021/12/24 08:48:16;;;;;;;8.40;0.93;;;18.40;57.30;;;;;;4483140;31;20168;-74
2021/12/24 08:50:44;;;;;;;1.63;0.63;;;18.50;57.10;;;;;;4496143;31;20331;-74
2021/12/24 08:53:12;;;;;;;11.98;0.70;;;18.60;56.80;;;;;;4496550;31;20151;-73
2021/12/24 08:55:39;;;;;;;0.70;0.40;;;18.70;56.50;;;;;;4495640;31;20135;-73
2021/12/24 08:58:05;;;;;;;1.48;0.55;;;18.80;56.30;;;;;;4496359;31;20140;-74
2021/12/24 09:00:34;;;;;;;0.52;0.35;;;18.90;56.00;;;;;;4497029;31;20128;-74
2021/12/24 09:03:02;;;;;;;0.90;0.40;;;19.00;55.80;;;;;;4495960;31;20141;-73
2021/12/24 09:05:30;;;;;;;1.58;0.68;;;19.20;55.60;;;;;;4496086;31;20246;-73
2021/12/24 09:07:56;;;;;;;1.40;0.57;;;19.30;55.30;;;;;;4494924;31;20525;-73
2021/12/24 09:10:23;;;;;;;0.73;0.43;;;19.40;55.00;;;;;;4495524;31;20155;-69
2021/12/24 09:12:50;;;;;;;2.25;0.52;;;19.50;54.80;;;;;;4496484;31;20125;-71
2021/12/24 09:15:18;;;;;;;1.05;0.30;;;19.50;54.70;;;;;;4496374;31;20133;-70
2021/12/24 09:17:46;;;;;;;4.47;0.50;;;19.60;54.80;;;;;;4496862;31;20625;-71
2021/12/24 09:20:16;;;;;;;0.68;0.50;;;19.60;54.80;;;;;;4494569;31;20141;-71
2021/12/24 09:22:42;;;;;;;0.90;0.32;;;19.60;55.80;;;;;;4497049;31;20139;-71
2021/12/24 09:25:09;;;;;;;0.90;0.40;;;19.60;55.00;;;;;;4495708;31;20427;-73
2021/12/24 09:27:37;;;;;;;1.15;0.50;;;19.60;55.30;;;;;;4496522;31;20132;-77
2021/12/24 09:30:05;;;;;;;3.35;0.70;;;19.50;55.40;;;;;;4495968;31;20139;-76
2021/12/24 09:32:31;;;;;;;2.50;0.43;;;19.50;55.80;;;;;;4496122;31;20263;-73
2021/12/24 09:34:57;;;;;;;1.55;0.68;;;19.50;56.10;;;;;;4496271;31;20703;-74
2021/12/24 09:37:24;;;;;;;2.47;0.75;;;19.50;56.40;;;;;;4495585;31;20194;-72
2021/12/24 09:39:49;;;;;;;2.53;0.85;;;19.40;56.80;;;;;;4496604;31;20133;-74
2021/12/24 09:42:15;;;;;;;3.15;0.70;;;19.40;57.50;;;;;;4505995;31;20265;-70
2021/12/24 09:44:41;;;;;;;2.22;0.70;;;19.30;57.60;;;;;;4511092;31;20132;-74
2021/12/24 09:47:07;;;;;;;7.40;0.90;;;19.20;58.10;;;;;;4511380;31;20112;-74
2021/12/24 09:49:33;;;;;;;2.33;0.82;;;19.20;58.80;;;;;;4511580;31;20125;-74
2021/12/24 09:52:02;;;;;;;1.83;0.68;;;19.20;59.40;;;;;;4510411;31;20128;-74
2021/12/24 09:54:28;;;;;;;1.75;0.77;;;19.10;59.20;;;;;;4511445;31;20108;-74
2021/12/24 09:56:56;;;;;;;2.47;0.70;;;19.20;59.00;;;;;;4497922;31;20124;-74
2021/12/24 09:59:23;;;;;;;1.67;0.70;;;19.20;59.00;;;;;;4497340;31;20128;-74
2021/12/24 10:01:55;;;;;;;10.05;0.90;;;19.20;58.90;;;;;;4511782;31;20136;-74
2021/12/24 10:04:24;;;;;;;3.90;0.60;;;19.30;59.80;;;;;;4511238;31;20146;-74
2021/12/24 10:06:55;;;;;;;2.97;0.70;;;19.40;58.70;;;;;;4510143;31;20147;-74
2021/12/24 10:09:29;;;;;;;2.88;0.70;;;19.50;58.50;;;;;;4511605;31;20155;-74
2021/12/24 10:11:59;;;;;;;3.60;0.70;;;19.60;58.10;;;;;;4510747;31;20138;-74
2021/12/24 10:14:35;;;;;;;6.43;0.85;;;19.70;57.80;;;;;;4511644;31;20163;-76
2021/12/24 10:17:02;;;;;;;3.88;1.10;;;19.80;57.50;;;;;;4511074;31;20128;-76
2021/12/24 10:19:28;;;;;;;2.42;1.10;;;20.00;57.20;;;;;;4511073;31;20140;-76
2021/12/24 10:22:03;;;;;;;3.85;0.95;;;20.10;57.00;;;;;;4510454;31;20282;-73
2021/12/24 10:24:30;;;;;;;4.78;1.05;;;20.10;56.90;;;;;;4509611;31;20175;-75
2021/12/24 10:26:58;;;;;;;1.90;0.82;;;20.20;56.70;;;;;;4510711;31;20279;-74
2021/12/24 10:29:33;;;;;;;7.25;1.15;;;20.30;56.50;;;;;;4509294;31;20128;-74
2021/12/24 10:32:09;;;;;;;3.13;0.80;;;20.40;56.30;;;;;;4509853;31;20142;-73
2021/12/24 10:34:36;;;;;;;2.53;0.95;;;20.60;56.10;;;;;;4511201;31;20705;-73
2021/12/24 10:37:12;;;;;;;2.85;0.80;;;20.70;55.70;;;;;;4510568;31;20578;-74
2021/12/24 10:39:43;;;;;;;5.13;0.90;;;20.80;55.50;;;;;;4510539;31;20124;-76
2021/12/24 10:42:15;;;;;;;3.17;0.90;;;20.90;55.10;;;;;;4510233;31;20132;-77
2021/12/24 10:44:43;;;;;;;6.68;0.98;;;21.00;54.90;;;;;;4511096;31;20258;-70
2021/12/24 10:47:16;;;;;;;3.78;1.00;;;21.10;54.70;;;;;;4509311;31;20286;-71
2021/12/24 10:54:58;;;;;;;5.80;0.75;;;21.40;53.80;;;;;;4510302;31;20136;-76
2021/12/24 10:57:33;;;;;;;3.83;0.60;;;21.50;53.70;;;;;;4509911;31;20158;-75
2021/12/24 11:00:14;;;;;;;7.03;0.75;;;21.60;53.70;;;;;;4510508;31;20185;-68
2021/12/24 11:03:02;;;;;;;6.78;0.90;;;21.60;53.50;;;;;;4510286;31;20116;-71
2021/12/24 11:05:38;;;;;;;2.90;0.93;;;21.70;52.60;;;;;;4509679;31;20152;-71
2021/12/24 11:08:14;;;;;;;4.00;0.80;;;21.70;51.80;;;;;;4509151;31;20135;-71
2021/12/24 11:10:55;;;;;;;5.07;1.00;;;21.70;51.60;;;;;;4510497;31;20182;-72
2021/12/24 11:13:31;;;;;;;2.88;0.85;;;21.70;51.70;;;;;;4509707;31;20132;-71
2021/12/24 11:15:59;;;;;;;1.80;0.63;;;21.70;51.60;;;;;;4509149;31;20143;-71
2021/12/24 11:18:32;;;;;;;2.10;0.50;;;21.80;51.70;;;;;;4509670;31;20167;-70
2021/12/24 11:21:07;;;;;;;3.88;0.93;;;21.80;51.70;;;;;;4508962;31;20112;-70
2021/12/24 11:23:36;;;;;;;2.50;0.80;;;21.90;51.80;;;;;;4509197;31;20182;-69
2021/12/24 11:26:11;;;;;;;1.95;0.55;;;21.90;51.60;;;;;;4509836;31;20144;-70
2021/12/24 11:28:38;;;;;;;1.67;0.60;;;22.00;51.70;;;;;;4510393;31;20258;-71
2021/12/24 11:31:06;;;;;;;3.85;0.70;;;22.00;51.60;;;;;;4509805;31;20128;-71
2021/12/24 11:33:34;;;;;;;2.60;0.60;;;22.00;51.60;;;;;;4508650;31;20132;-71
2021/12/24 11:36:03;;;;;;;2.92;0.60;;;21.90;51.60;;;;;;4510808;31;20159;-71
2021/12/24 11:38:36;;;;;;;2.47;0.90;;;21.80;51.60;;;;;;4510063;31;20614;-78
2021/12/24 11:41:04;;;;;;;2.45;0.47;;;21.70;51.70;;;;;;4510478;31;20116;-76
2021/12/24 11:43:34;;;;;;;2.88;0.80;;;21.60;51.80;;;;;;4497725;31;20141;-77
2021/12/24 11:46:03;;;;;;;2.85;0.60;;;21.50;52.10;;;;;;4492549;31;20231;-77
2021/12/24 11:48:32;;;;;;;1.48;0.57;;;21.40;52.10;;;;;;4494416;31;20158;-77
2021/12/24 11:51:06;;;;;;;1.75;0.80;;;21.30;52.20;;;;;;4493653;31;20187;-77
2021/12/24 11:53:33;;;;;;;2.95;0.70;;;21.30;52.40;;;;;;4506378;31;20142;-77
2021/12/24 11:56:09;;;;;;;3.55;0.70;;;21.20;52.60;;;;;;4509138;31;20144;-74
2021/12/24 11:58:46;;;;;;;1.65;0.52;;;21.20;52.70;;;;;;4493788;32;20151;-80
2021/12/24 12:01:16;;;;;;;2.28;0.80;;;21.20;52.70;;;;;;4494041;32;20221;-79
2021/12/24 12:04:10;;;;;;;0.95;0.50;;;21.10;52.80;;;;;;4494139;31;20156;-78
2021/12/24 12:06:36;;;;;;;2.45;0.50;;;21.10;52.70;;;;;;4488523;32;20857;-78
2021/12/24 12:09:10;;;;;;;2.28;0.55;;;21.10;52.70;;;;;;4494948;32;20129;-80
2021/12/24 12:11:39;;;;;;;1.92;0.70;;;21.20;52.70;;;;;;4493240;32;20180;-78
2021/12/24 12:14:15;;;;;;;2.67;0.60;;;21.10;52.70;;;;;;4495160;31;20241;-78
2021/12/24 12:16:54;;;;;;;0.90;0.50;;;21.20;52.70;;;;;;4496917;31;20206;-75
2021/12/24 12:19:38;;;;;;;1.05;0.60;;;21.10;52.70;;;;;;4496862;31;20144;-76
2021/12/24 12:22:12;;;;;;;1.77;0.60;;;21.10;52.80;;;;;;4497682;31;20202;-75
2021/12/24 12:24:57;;;;;;;4.90;0.82;;;21.10;52.90;;;;;;4496605;31;20275;-75
2021/12/24 12:27:44;;;;;;;2.80;0.65;;;21.00;53.00;;;;;;4496206;31;20144;-77
2021/12/24 12:30:35;;;;;;;10.68;0.73;;;21.00;53.10;;;;;;4497297;31;20129;-78
2021/12/24 12:33:06;;;;;;;28.00;1.80;;;21.00;53.30;;;;;;4496777;31;20251;-78
2021/12/24 12:35:57;;;;;;;18.35;1.05;;;21.00;53.30;;;;;;4496246;31;20136;-81
2021/12/24 12:38:33;;;;;;;4.72;0.75;;;21.00;53.30;;;;;;4495271;31;20120;-79
2021/12/24 12:41:33;;;;;;;9.48;0.90;;;21.00;53.60;;;;;;4496457;31;20222;-76
2021/12/24 12:44:05;;;;;;;12.68;1.10;;;20.90;53.60;;;;;;4497572;31;20349;-74
2021/12/24 12:46:34;;;;;;;8.68;0.68;;;20.90;53.70;;;;;;4496268;31;20182;-73
2021/12/24 12:49:04;;;;;;;5.93;0.80;;;20.80;53.80;;;;;;4497017;31;20251;-76
2021/12/24 12:51:55;;;;;;;7.15;0.70;;;20.80;54.00;;;;;;4495975;31;20120;-72
2021/12/24 12:54:38;;;;;;;8.68;0.70;;;20.80;54.20;;;;;;4494535;31;20160;-72
2021/12/24 12:57:30;;;;;;;7.13;0.80;;;20.70;54.30;;;;;;4496896;31;20128;-74
2021/12/24 13:00:27;;;;;;;3.75;0.90;;;20.70;54.40;;;;;;4494327;31;20468;-74
2021/12/24 13:03:17;;;;;;;4.00;0.52;;;20.80;54.40;;;;;;4489218;31;20869;-73
2021/12/24 13:05:42;;;;;;;4.90;0.60;;;20.80;54.30;;;;;;4495299;31;20116;-72
2021/12/24 13:08:13;;;;;;;2.80;0.60;;;20.80;54.20;;;;;;4503318;31;20136;-71
2021/12/24 13:10:39;;;;;;;2.92;0.68;;;20.90;54.20;;;;;;4497503;31;20649;-74
2021/12/24 13:13:06;;;;;;;2.22;0.60;;;21.00;54.00;;;;;;4495788;31;20112;-73
2021/12/24 13:15:44;;;;;;;2.67;0.55;;;21.00;53.80;;;;;;4495549;31;20195;-73
2021/12/24 13:18:32;;;;;;;4.75;0.40;;;21.10;53.70;;;;;;4496663;31;20333;-75
2021/12/24 13:23:32;;;;;;;1.05;0.50;;;21.20;53.70;;;;;;4495690;31;20148;-75
2021/12/24 13:26:09;;;;;;;2.95;0.90;;;21.20;53.70;;;;;;4510680;31;20128;-72
2021/12/24 13:28:40;;;;;;;3.72;0.57;;;21.20;53.80;;;;;;4510527;31;20251;-72
2021/12/24 13:31:13;;;;;;;1.17;0.40;;;21.20;53.80;;;;;;4497573;31;20163;-72
2021/12/24 13:33:39;;;;;;;2.33;0.45;;;21.20;53.90;;;;;;4494411;31;20560;-73
2021/12/24 13:36:05;;;;;;;1.63;0.45;;;21.30;53.90;;;;;;4494268;31;20136;-72
2021/12/24 13:38:31;;;;;;;2.40;0.60;;;21.30;53.90;;;;;;4493666;31;20160;-74
2021/12/24 13:40:57;;;;;;;3.80;0.65;;;21.30;53.90;;;;;;4493621;31;20143;-75
2021/12/24 13:43:24;;;;;;;1.90;0.52;;;21.30;53.80;;;;;;4493808;31;20279;-71
2021/12/24 13:45:52;;;;;;;1.73;0.30;;;21.30;53.90;;;;;;4492674;31;20187;-72
2021/12/24 13:48:27;;;;;;;1.67;0.40;;;21.30;53.90;;;;;;4494202;31;20171;-71
2021/12/24 13:56:44;;;;;;;2.97;0.52;;;21.20;53.90;;;;;;4476047;32;20275;-72
2021/12/24 13:59:12;;;;;;;1.90;0.63;;;21.20;53.90;;;;;;4460311;32;20180;-70
2021/12/24 14:01:40;;;;;;;0.60;0.40;;;21.20;54.00;;;;;;4492979;31;20154;-73
2021/12/24 14:04:07;;;;;;;0.68;0.20;;;21.20;54.00;;;;;;4510701;31;20253;-72
2021/12/24 14:06:34;;;;;;;1.60;0.47;;;21.20;53.90;;;;;;4504837;31;20160;-77
2021/12/24 14:09:17;;;;;;;1.58;0.40;;;21.20;53.90;;;;;;4482128;31;23039;-74
2021/12/24 14:11:45;;;;;;;0.77;0.20;;;21.20;53.90;;;;;;4488527;31;20124;-76
2021/12/24 14:14:17;;;;;;;3.13;0.32;;;21.20;54.00;;;;;;4502907;31;20116;-72
2021/12/24 14:19:17;;;;;;;2.28;0.47;;;21.20;54.00;;;;;;4495705;31;20117;-73
2021/12/24 14:21:46;;;;;;;1.58;0.47;;;21.10;54.00;;;;;;4504703;31;20136;-75
2021/12/24 14:24:15;;;;;;;1.23;0.30;;;21.10;54.00;;;;;;4504070;31;20116;-74
2021/12/24 14:26:46;;;;;;;2.88;0.63;;;21.20;54.00;;;;;;4498301;31;20247;-74
2021/12/24 14:29:12;;;;;;;1.42;0.50;;;21.20;53.90;;;;;;4492030;31;20144;-76
2021/12/24 14:31:51;;;;;;;4.28;0.60;;;21.10;53.90;;;;;;4504403;31;20199;-75
2021/12/24 14:34:30;;;;;;;4.38;0.55;;;21.20;53.90;;;;;;4499959;31;20140;-75
2021/12/24 14:37:02;;;;;;;1.27;0.40;;;21.20;54.00;;;;;;4509606;31;20140;-76
2021/12/24 14:39:42;;;;;;;1.30;0.50;;;21.20;54.00;;;;;;4503669;31;20301;-74
2021/12/24 14:42:13;;;;;;;1.90;0.45;;;21.20;54.10;;;;;;4491507;31;20191;-72
2021/12/24 14:44:39;;;;;;;2.05;0.35;;;21.20;54.10;;;;;;4492396;31;20120;-69
2021/12/24 14:47:05;;;;;;;1.02;0.32;;;21.20;54.20;;;;;;4496372;31;20133;-69
2021/12/24 14:49:39;;;;;;;0.68;0.40;;;21.20;54.60;;;;;;4483525;31;20136;-72
2021/12/24 14:52:23;;;;;;;1.88;0.40;;;21.20;54.10;;;;;;4494752;31;20182;-74